Aeroporto :
LOGIN :

Iscrizione | Disclaimer

   EN    FR    IT 

 










Sommario :    VFR   VFR Marginale   IFR   IFR Intensivo   IFR Molto Intensivo
Visibilità : 
Base nubi : 
>= 8 km
>= 3000ft
5 / 8 km
1000 / 3000 ft
1500m / 5 km
500 / 1000 ft
800 / 1500m
200 / 500 ft
< 800m
< 200 ft
Simboli :   Temporali  Nebbia  Neve Forte  Precipitazioni Forti  Vento > 20 kt
SIGMETs :   Varie  Temporali  Ghiacco  Turbolenza  Onda orograficha  Ceneri Vulcaniche






- Altitudine del aeroporto : 24 ft
- Codice IATA : AXD


LGAL - Dimokritos

ULTIMO METAR :
  • 020950Z 23008KT 9999 FEW020TCU SCT025 20/13 Q1008

METARs OBSOLETI :
  • 020920Z 22007KT 9999 FEW020TCU SCT025 20/13 Q1008
  • 020850Z 12006KT 9999 FEW020TCU SCT025 19/13 Q1009
  • 020820Z 17005KT 9999 FEW020TCU SCT025 19/13 Q1009
  • 020750Z 17005KT 9999 FEW020 SCT025 18/13 Q1009
  • 020720Z VRB02KT 9999 FEW020 SCT025 17/13 Q1009

TAF TAF LGAL
Valido dal 02 a 09 ore il 02 a 18 ore UTC


020800Z 0209/0218 VRB03KT 9999 FEW020 BKN030
PROB40
TEMPO 0209/0216 5000 RA SCT020 BKN025
PROB30
TEMPO 0210/0215 3000 TSRA SCT012 FEW018CB BKN020



MetMap, La meteo Aeronautica in un colpo d'occhio ! - Copyright ORBIFLY Dicembre 2007 - Disclaimer

ORBIFLY MET'MAP TEAM :

Programmazione e sviluppo : Alexandra Zaïnal
Concezione : Baudouin d'Aumeries
Aiuto per la programmazione : Marc-Olivier Méhu
Supporto tecnico e logistico : Manuel Goepfert
Aiuto per la traduzione : Arnaldo La Scala

Contatto : metmap@orbifly.com




FONTI E CREDITI :

   NOAA